Observation data for Graham on 08/14/2019      Previous  Date  Next       Current Mesonet Observations  Soil Data  Daily Summary Page  Observations in Plain Language
KGHS 140500Z 06011KT 28/17 A3009 RMK A01 T02820174  RH  055%=      5-min Rain = 0
KGHS 140505Z 06011KT 28/18 A3009 RMK A01 T02810175  RH  055%=      5-min Rain = 0
KGHS 140510Z 06010KT 28/18 A3009 RMK A01 T02810175  RH  055%=      5-min Rain = 0
KGHS 140515Z 06010KT 28/18 A3009 RMK A01 T02790175  RH  056%=      5-min Rain = 0
KGHS 140520Z 06010KT 28/18 A3009 RMK A01 T02790175  RH  056%=      5-min Rain = 0
KGHS 140525Z 06010KT 28/18 A3009 RMK A01 T02780175  RH  056%=      5-min Rain = 0
KGHS 140530Z 06010KT 28/18 A3009 RMK A01 T02770175  RH  057%=      5-min Rain = 0
KGHS 140535Z 07009KT 28/18 A3009 RMK A01 T02770175  RH  057%=      5-min Rain = 0
KGHS 140540Z 06008KT 28/18 A301 RMK A01 T02760175  RH  057%=      5-min Rain = 0
KGHS 140545Z 07008KT 28/18 A301 RMK A01 T02750175  RH  057%=      5-min Rain = 0
KGHS 140550Z 07009KT 27/18 A3009 RMK A01 T02740175  RH  058%=      5-min Rain = 0
KGHS 140555Z 07009KT 27/18 A3009 RMK A01 T02730176  RH  058%=      5-min Rain = 0
KGHS 140600Z 07010G15KT 27/18 A3009 RMK A01 T02730176  RH  058%=      5-min Rain = 0
KGHS 140605Z 06010KT 27/18 A3009 RMK A01 T02720177  RH  059%=      5-min Rain = 0
KGHS 140610Z 06008KT 27/18 A301 RMK A01 T02710177  RH  059%=      5-min Rain = 0
KGHS 140615Z 06009KT 27/18 A301 RMK A01 T02710177  RH  060%=      5-min Rain = 0
KGHS 140620Z 07010KT 27/18 A301 RMK A01 T02700178  RH  060%=      5-min Rain = 0
KGHS 140625Z 07009KT 27/18 A301 RMK A01 T02690178  RH  060%=      5-min Rain = 0
KGHS 140630Z 06008G13KT 27/18 A301 RMK A01 T02690178  RH  061%=      5-min Rain = 0
KGHS 140635Z 06009G14KT 27/18 A301 RMK A01 T02680179  RH  061%=      5-min Rain = 0
KGHS 140640Z 06010KT 27/18 A301 RMK A01 T02680179  RH  061%=      5-min Rain = 0
KGHS 140645Z 07010KT 27/18 A301 RMK A01 T02670179  RH  062%=      5-min Rain = 0
KGHS 140650Z 07011KT 27/18 A301 RMK A01 T02670180  RH  062%=      5-min Rain = 0
KGHS 140655Z 07011G16KT 27/18 A3009 RMK A01 T02670180  RH  062%=      5-min Rain = 0
KGHS 140700Z 06013G18KT 27/18 A3009 RMK A01 T02670180  RH  062%=      5-min Rain = 0
KGHS 140705Z 06011KT 27/18 A3009 RMK A01 T02660180  RH  062%=      5-min Rain = 0
KGHS 140710Z 06011KT 27/18 A301 RMK A01 T02660181  RH  063%=      5-min Rain = 0
KGHS 140715Z 06010KT 27/18 A301 RMK A01 T02650181  RH  063%=      5-min Rain = 0
KGHS 140720Z 06010G15KT 26/18 A301 RMK A01 T02640181  RH  063%=      5-min Rain = 0
KGHS 140725Z 06011G17KT 26/18 A301 RMK A01 T02630181  RH  064%=      5-min Rain = 0
KGHS 140730Z 06012KT 26/18 A301 RMK A01 T02630181  RH  064%=      5-min Rain = 0
KGHS 140735Z 05013KT 26/18 A301 RMK A01 T02630181  RH  064%=      5-min Rain = 0
KGHS 140740Z 05014G19KT 26/18 A301 RMK A01 T02630181  RH  064%=      5-min Rain = 0
KGHS 140745Z 05014KT 26/18 A301 RMK A01 T02630181  RH  064%=      5-min Rain = 0
KGHS 140750Z 05014G19KT 26/18 A301 RMK A01 T02630181  RH  064%=      5-min Rain = 0
KGHS 140755Z 05014G19KT 26/18 A301 RMK A01 T02630181  RH  064%=      5-min Rain = 0
KGHS 140800Z 05014KT 26/18 A301 RMK A01 T02620181  RH  064%=      5-min Rain = 0
KGHS 140805Z 06013KT 26/18 A3009 RMK A01 T02620181  RH  064%=      5-min Rain = 0
KGHS 140810Z 06013G18KT 26/18 A3009 RMK A01 T02610181  RH  065%=      5-min Rain = 0
KGHS 140815Z 06011G17KT 26/18 A3009 RMK A01 T02610181  RH  065%=      5-min Rain = 0
KGHS 140820Z 05011KT 26/18 A3009 RMK A01 T02600181  RH  065%=      5-min Rain = 0
KGHS 140825Z 05011G16KT 26/18 A301 RMK A01 T02590180  RH  065%=      5-min Rain = 0
KGHS 140830Z 05012KT 26/18 A301 RMK A01 T02580180  RH  065%=      5-min Rain = 0
KGHS 140835Z 05012KT 26/18 A3009 RMK A01 T02570180  RH  066%=      5-min Rain = 0
KGHS 140840Z 05013KT 26/18 A3009 RMK A01 T02560179  RH  066%=      5-min Rain = 0
KGHS 140845Z 05011KT 26/18 A3009 RMK A01 T02550179  RH  066%=      5-min Rain = 0
KGHS 140850Z 05011KT 25/18 A3009 RMK A01 T02540178  RH  066%=      5-min Rain = 0
KGHS 140855Z 04012G17KT 25/18 A3009 RMK A01 T02530178  RH  067%=      5-min Rain = 0
KGHS 140900Z 04013KT 25/18 A3009 RMK A01 T02520178  RH  067%=      5-min Rain = 0
KGHS 140905Z 05011KT 25/18 A3009 RMK A01 T02510178  RH  067%=      5-min Rain = 0
KGHS 140910Z 05007G12KT 25/18 A3009 RMK A01 T02500178  RH  068%=      5-min Rain = 0
KGHS 140915Z 05009KT 25/18 A3009 RMK A01 T02490178  RH  068%=      5-min Rain = 0
KGHS 140920Z 06007KT 25/18 A3009 RMK A01 T02480178  RH  068%=      5-min Rain = 0
KGHS 140925Z 06007KT 25/18 A3009 RMK A01 T02480177  RH  068%=      5-min Rain = 0
KGHS 140930Z 06006KT 25/18 A3009 RMK A01 T02470177  RH  068%=      5-min Rain = 0
KGHS 140935Z 05007KT 25/18 A3009 RMK A01 T02470177  RH  069%=      5-min Rain = 0
KGHS 140940Z 05008KT 25/18 A3009 RMK A01 T02460177  RH  069%=      5-min Rain = 0
KGHS 140945Z 04009KT 25/18 A3009 RMK A01 T02450177  RH  069%=      5-min Rain = 0
KGHS 140950Z 04011KT 24/18 A3009 RMK A01 T02440177  RH  069%=      5-min Rain = 0
KGHS 140955Z 04010KT 24/18 A3009 RMK A01 T02440177  RH  070%=      5-min Rain = 0
KGHS 141000Z 04009G14KT 24/18 A301 RMK A01 T02430176  RH  070%=      5-min Rain = 0
KGHS 141005Z 04009G14KT 24/18 A301 RMK A01 T02420176  RH  070%=      5-min Rain = 0
KGHS 141010Z 04011KT 24/18 A301 RMK A01 T02420177  RH  071%=      5-min Rain = 0
KGHS 141015Z 04009KT 24/18 A301 RMK A01 T02410177  RH  071%=      5-min Rain = 0
KGHS 141020Z 04011KT 24/18 A301 RMK A01 T02410177  RH  071%=      5-min Rain = 0
KGHS 141025Z 05010KT 24/18 A3011 RMK A01 T02410177  RH  071%=      5-min Rain = 0
KGHS 141030Z 05008G13KT 24/18 A3011 RMK A01 T02400177  RH  071%=      5-min Rain = 0
KGHS 141035Z 05009G15KT 24/18 A3011 RMK A01 T02400177  RH  071%=      5-min Rain = 0
KGHS 141040Z 05008G13KT 24/18 A3011 RMK A01 T02400177  RH  072%=      5-min Rain = 0
KGHS 141045Z 06007KT 24/18 A3011 RMK A01 T02390177  RH  072%=      5-min Rain = 0
KGHS 141050Z 05007KT 24/18 A3011 RMK A01 T02390177  RH  072%=      5-min Rain = 0
KGHS 141055Z 05008KT 24/18 A3012 RMK A01 T02390177  RH  072%=      5-min Rain = 0
KGHS 141100Z 05008G14KT 24/18 A3012 RMK A01 T02380177  RH  072%=      5-min Rain = 0
KGHS 141105Z 05011KT 24/18 A3012 RMK A01 T02380177  RH  072%=      5-min Rain = 0
KGHS 141110Z 05014KT 24/18 A3012 RMK A01 T02380177  RH  072%=      5-min Rain = 0
KGHS 141115Z 04013G19KT 24/18 A3013 RMK A01 T02380177  RH  072%=      5-min Rain = 0
KGHS 141120Z 05015G21KT 24/18 A3013 RMK A01 T02370176  RH  072%=      5-min Rain = 0
KGHS 141125Z 04016G26KT 24/18 A3013 RMK A01 T02370175  RH  072%=      5-min Rain = 0
KGHS 141130Z 04019G25KT 24/17 A3013 RMK A01 T02350171  RH  071%=      5-min Rain = 0
KGHS 141135Z 04019G24KT 23/17 A3013 RMK A01 T02330170  RH  071%=      5-min Rain = 0
KGHS 141140Z 04018G24KT 23/17 A3014 RMK A01 T02310169  RH  072%=      5-min Rain = 0
KGHS 141145Z 04019G25KT 23/17 A3014 RMK A01 T02300169  RH  072%=      5-min Rain = 0
KGHS 141150Z 03015G22KT 23/17 A3014 RMK A01 T02280169  RH  073%=      5-min Rain = 0
KGHS 141155Z 04020G26KT 23/17 A3014 RMK A01 T02270169  RH  074%=      5-min Rain = 0
KGHS 141200Z 04015G21KT 23/17 A3014 RMK A01 T02260170  RH  074%=      5-min Rain = 0
KGHS 141205Z 04017G22KT 23/17 A3014 RMK A01 T02250170  RH  075%=      5-min Rain = 0
KGHS 141210Z 04018G24KT 22/17 A3014 RMK A01 T02240170  RH  075%=      5-min Rain = 0
KGHS 141215Z 04016KT 22/17 A3014 RMK A01 T02230170  RH  076%=      5-min Rain = 0
KGHS 141220Z 04015G21KT 22/17 A3015 RMK A01 T02220170  RH  076%=      5-min Rain = 0
KGHS 141225Z 04015G20KT 22/17 A3015 RMK A01 T02210170  RH  076%=      5-min Rain = 0
KGHS 141230Z 03015KT 22/17 A3015 RMK A01 T02210170  RH  076%=      5-min Rain = 0
KGHS 141235Z 03015G20KT 22/17 A3015 RMK A01 T02200169  RH  077%=      5-min Rain = 0
KGHS 141240Z 03014KT 22/17 A3016 RMK A01 T02200169  RH  076%=      5-min Rain = 0
KGHS 141245Z 03014G20KT 22/17 A3016 RMK A01 T02200168  RH  076%=      5-min Rain = 0
KGHS 141250Z 03017G22KT 22/17 A3016 RMK A01 T02200166  RH  075%=      5-min Rain = 0
KGHS 141255Z 03014G20KT 22/16 A3016 RMK A01 T02200164  RH  074%=      5-min Rain = 0
KGHS 141300Z 04012KT 22/17 A3017 RMK A01 T02210165  RH  074%=      5-min Rain = 0
KGHS 141305Z 03011KT 22/17 A3017 RMK A01 T02230165  RH  073%=      5-min Rain = 0
KGHS 141310Z 02013G20KT 22/17 A3017 RMK A01 T02230165  RH  073%=      5-min Rain = 0
KGHS 141315Z 03014G20KT 22/16 A3016 RMK A01 T02230163  RH  072%=      5-min Rain = 0
KGHS 141320Z 03016KT 22/16 A3017 RMK A01 T02240162  RH  071%=      5-min Rain = 0
KGHS 141325Z 03017G23KT 23/16 A3017 RMK A01 T02250161  RH  071%=      5-min Rain = 0
KGHS 141330Z 03018G24KT 23/16 A3017 RMK A01 T02260162  RH  070%=      5-min Rain = 0
KGHS 141335Z 03017G22KT 23/16 A3018 RMK A01 T02260162  RH  070%=      5-min Rain = 0
KGHS 141340Z 03016G21KT 23/16 A3018 RMK A01 T02270161  RH  070%=      5-min Rain = 0
KGHS 141345Z 03017G23KT 23/16 A3018 RMK A01 T02280161  RH  069%=      5-min Rain = 0
KGHS 141350Z 03016G22KT 23/16 A3019 RMK A01 T02310162  RH  068%=      5-min Rain = 0
KGHS 141355Z 03019KT 23/16 A3019 RMK A01 T02320160  RH  067%=      5-min Rain = 0
KGHS 141400Z 03016G24KT 23/16 A3019 RMK A01 T02320160  RH  067%=      5-min Rain = 0
KGHS 141405Z 03017G23KT 23/16 A3019 RMK A01 T02320160  RH  067%=      5-min Rain = 0
KGHS 141410Z 03018G24KT 23/16 A3019 RMK A01 T02330160  RH  066%=      5-min Rain = 0
KGHS 141415Z 02017G23KT 24/16 A302 RMK A01 T02350160  RH  066%=      5-min Rain = 0
KGHS 141420Z 03016G23KT 24/16 A302 RMK A01 T02390161  RH  065%=      5-min Rain = 0
KGHS 141425Z 03018G23KT 24/16 A302 RMK A01 T02390161  RH  065%=      5-min Rain = 0
KGHS 141430Z 03014G20KT 24/16 A302 RMK A01 T02430162  RH  063%=      5-min Rain = 0
KGHS 141435Z 03016G24KT 25/16 A302 RMK A01 T02450162  RH  063%=      5-min Rain = 0
KGHS 141440Z 03018G23KT 25/16 A3021 RMK A01 T02450163  RH  063%=      5-min Rain = 0
KGHS 141445Z 04016G25KT 25/16 A3021 RMK A01 T02480164  RH  063%=      5-min Rain = 0
KGHS 141450Z 03018G24KT 25/17 A302 RMK A01 T02490165  RH  062%=      5-min Rain = 0
KGHS 141455Z 04016G22KT 25/17 A302 RMK A01 T02520166  RH  062%=      5-min Rain = 0
KGHS 141500Z 03016G23KT 25/17 A302 RMK A01 T02540167  RH  061%=      5-min Rain = 0
KGHS 141505Z 04016G21KT 26/17 A302 RMK A01 T02550168  RH  061%=      5-min Rain = 0
KGHS 141510Z 03015G21KT 26/17 A302 RMK A01 T02560168  RH  061%=      5-min Rain = 0
KGHS 141515Z 03017G24KT 26/17 A302 RMK A01 T02590167  RH  060%=      5-min Rain = 0
KGHS 141520Z 03017G22KT 26/17 A3021 RMK A01 T02600167  RH  059%=      5-min Rain = 0
KGHS 141525Z 04013G18KT 26/17 A3021 RMK A01 T02640168  RH  058%=      5-min Rain = 0
KGHS 141530Z 05013G18KT 27/17 A3021 RMK A01 T02700167  RH  056%=      5-min Rain = 0
KGHS 141535Z 04013G21KT 27/17 A3021 RMK A01 T02720167  RH  055%=      5-min Rain = 0
KGHS 141540Z 04014G19KT 27/17 A3021 RMK A01 T02730167  RH  055%=      5-min Rain = 0
KGHS 141545Z 05014G20KT 28/16 A3021 RMK A01 T02790164  RH  052%=      5-min Rain = 0
KGHS 141550Z 05017G22KT 28/16 A3021 RMK A01 T02780160  RH  051%=      5-min Rain = 0
KGHS 141555Z 04014G20KT 28/16 A3021 RMK A01 T02770159  RH  051%=      5-min Rain = 0
KGHS 141600Z 05013G19KT 28/16 A302 RMK A01 T02800158  RH  050%=      5-min Rain = 0
KGHS 141605Z 05012G17KT 28/16 A302 RMK A01 T02840160  RH  049%=      5-min Rain = 0
KGHS 141610Z 05012G18KT 28/16 A302 RMK A01 T02840160  RH  049%=      5-min Rain = 0
KGHS 141615Z 05013G19KT 29/16 A302 RMK A01 T02880159  RH  048%=      5-min Rain = 0
KGHS 141620Z 05013KT 29/16 A302 RMK A01 T02890159  RH  048%=      5-min Rain = 0
KGHS 141625Z 06012G18KT 29/16 A302 RMK A01 T02920159  RH  047%=      5-min Rain = 0
KGHS 141630Z 05014G21KT 29/16 A302 RMK A01 T02940157  RH  046%=      5-min Rain = 0
KGHS 141635Z 05013KT 30/16 A3019 RMK A01 T02960157  RH  045%=      5-min Rain = 0
KGHS 141640Z 04016G22KT 30/16 A3019 RMK A01 T02970155  RH  044%=      5-min Rain = 0
KGHS 141645Z 05017G23KT 30/16 A3019 RMK A01 T02950155  RH  045%=      5-min Rain = 0
KGHS 141650Z 06015G21KT 30/16 A3019 RMK A01 T02950156  RH  045%=      5-min Rain = 0
KGHS 141655Z 06014G21KT 30/16 A3018 RMK A01 T02950157  RH  045%=      5-min Rain = 0
KGHS 141700Z 04015G22KT 30/16 A3018 RMK A01 T02950155  RH  044%=      5-min Rain = 0
KGHS 141705Z 05015G23KT 30/15 A3018 RMK A01 T02970154  RH  044%=      5-min Rain = 0
KGHS 141710Z 04016KT 30/15 A3018 RMK A01 T03000150  RH  042%=      5-min Rain = 0
KGHS 141715Z 05013G19KT 30/15 A3018 RMK A01 T03010150  RH  042%=      5-min Rain = 0
KGHS 141720Z 05013KT 30/15 A3018 RMK A01 T03040154  RH  042%=      5-min Rain = 0
KGHS 141725Z 05016G22KT 30/15 A3018 RMK A01 T03030151  RH  042%=      5-min Rain = 0
KGHS 141730Z 05014G22KT 30/15 A3018 RMK A01 T03020151  RH  042%=      5-min Rain = 0
KGHS 141735Z 05012G19KT 30/15 A3017 RMK A01 T03040151  RH  041%=      5-min Rain = 0
KGHS 141740Z 04013KT 31/15 A3017 RMK A01 T03080148  RH  040%=      5-min Rain = 0
KGHS 141745Z 05015G23KT 31/15 A3016 RMK A01 T03110145  RH  038%=      5-min Rain = 0
KGHS 141750Z 05012G17KT 31/14 A3016 RMK A01 T03120143  RH  037%=      5-min Rain = 0
KGHS 141755Z 06013G21KT 32/14 A3016 RMK A01 T03160143  RH  037%=      5-min Rain = 0
KGHS 141800Z 06016G23KT 31/14 A3015 RMK A01 T03120140  RH  037%=      5-min Rain = 0
KGHS 141805Z 06012KT 31/14 A3015 RMK A01 T03110143  RH  038%=      5-min Rain = 0
KGHS 141810Z 07016G23KT 31/14 A3015 RMK A01 T03120136  RH  036%=      5-min Rain = 0
KGHS 141815Z 06012KT 32/14 A3015 RMK A01 T03150138  RH  036%=      5-min Rain = 0
KGHS 141820Z 08010G18KT 32/14 A3015 RMK A01 T03180138  RH  035%=      5-min Rain = 0
KGHS 141825Z 08013G19KT 32/13 A3014 RMK A01 T03210127  RH  032%=      5-min Rain = 0
KGHS 141830Z 07016G23KT 32/12 A3014 RMK A01 T03220124  RH  031%=      5-min Rain = 0
KGHS 141835Z 06014G19KT 32/13 A3014 RMK A01 T03210127  RH  032%=      5-min Rain = 0
KGHS 141840Z 05016G22KT 32/12 A3014 RMK A01 T03240124  RH  031%=      5-min Rain = 0
KGHS 141845Z 06014G19KT 33/12 A3014 RMK A01 T03260123  RH  030%=      5-min Rain = 0
KGHS 141850Z 07014G19KT 33/13 A3014 RMK A01 T03280127  RH  031%=      5-min Rain = 0
KGHS 141855Z 08011G20KT 33/12 A3013 RMK A01 T03290120  RH  029%=      5-min Rain = 0
KGHS 141900Z 07011G16KT 34/12 A3013 RMK A01 T03360118  RH  028%=      5-min Rain = 0
KGHS 141905Z 05011G18KT 34/12 A3013 RMK A01 T03360116  RH  027%=      5-min Rain = 0
KGHS 141910Z 07015G24KT 34/12 A3013 RMK A01 T03360118  RH  028%=      5-min Rain = 0
KGHS 141915Z 09012G17KT 34/11 A3013 RMK A01 T03380114  RH  027%=      5-min Rain = 0
KGHS 141920Z 08015G21KT 34/12 A3012 RMK A01 T03380118  RH  027%=      5-min Rain = 0
KGHS 141925Z 07013G18KT 34/12 A3013 RMK A01 T03370118  RH  027%=      5-min Rain = 0
KGHS 141930Z 07016G22KT 34/11 A3012 RMK A01 T03400114  RH  026%=      5-min Rain = 0
KGHS 141935Z 07016G23KT 34/11 A3012 RMK A01 T03390114  RH  026%=      5-min Rain = 0
KGHS 141940Z 07014G21KT 34/11 A3012 RMK A01 T03380112  RH  026%=      5-min Rain = 0
KGHS 141945Z 06016G22KT 34/11 A3012 RMK A01 T03400112  RH  026%=      5-min Rain = 0
KGHS 141950Z 07016G21KT 34/11 A3012 RMK A01 T03420109  RH  025%=      5-min Rain = 0
KGHS 141955Z 07015G21KT 34/10 A3012 RMK A01 T03420103  RH  024%=      5-min Rain = 0
KGHS 142000Z 08015G22KT 34/10 A3011 RMK A01 T03400102  RH  024%=      5-min Rain = 0
KGHS 142005Z 07015G26KT 34/10 A3011 RMK A01 T03420103  RH  024%=      5-min Rain = 0
KGHS 142010Z 06011G21KT 34/10 A3011 RMK A01 T03440100  RH  023%=      5-min Rain = 0
KGHS 142015Z 07013G18KT 35/10 A301 RMK A01 T03470096  RH  022%=      5-min Rain = 0
KGHS 142020Z 06011G17KT 35/10 A301 RMK A01 T03490100  RH  023%=      5-min Rain = 0
KGHS 142025Z 06009G15KT 35/10 A301 RMK A01 T03490102  RH  023%=      5-min Rain = 0
KGHS 142030Z 06015G23KT 35/10 A3009 RMK A01 T03500104  RH  023%=      5-min Rain = 0
KGHS 142035Z 06012G20KT 35/10 A3009 RMK A01 T03480100  RH  023%=      5-min Rain = 0
KGHS 142040Z 07012G22KT 35/10 A3008 RMK A01 T03490098  RH  022%=      5-min Rain = 0
KGHS 142045Z 06013G23KT 35/10 A3008 RMK A01 T03510097  RH  022%=      5-min Rain = 0
KGHS 142050Z 04015G21KT 35/09 A3008 RMK A01 T03530089  RH  021%=      5-min Rain = 0
KGHS 142055Z 05012G19KT 35/09 A3008 RMK A01 T03520092  RH  021%=      5-min Rain = 0
KGHS 142100Z 04013G18KT 35/09 A3008 RMK A01 T03500091  RH  021%=      5-min Rain = 0
KGHS 142105Z 06012G17KT 35/10 A3008 RMK A01 T03520096  RH  022%=      5-min Rain = 0
KGHS 142110Z 04012G19KT 36/10 A3007 RMK A01 T03560098  RH  021%=      5-min Rain = 0
KGHS 142115Z 03016G22KT 35/09 A3007 RMK A01 T03540093  RH  021%=      5-min Rain = 0
KGHS 142120Z 04013G20KT 35/09 A3007 RMK A01 T03490090  RH  021%=      5-min Rain = 0
KGHS 142125Z 07010G16KT 35/10 A3007 RMK A01 T03490097  RH  022%=      5-min Rain = 0
KGHS 142130Z 04012G19KT 35/09 A3006 RMK A01 T03520094  RH  021%=      5-min Rain = 0
KGHS 142135Z 05016G23KT 35/09 A3006 RMK A01 T03520094  RH  021%=      5-min Rain = 0
KGHS 142140Z 06012G17KT 35/10 A3006 RMK A01 T03530095  RH  021%=      5-min Rain = 0
KGHS 142145Z 07012G17KT 35/10 A3006 RMK A01 T03520102  RH  023%=      5-min Rain = 0
KGHS 142150Z 08014G24KT 35/10 A3006 RMK A01 T03510104  RH  023%=      5-min Rain = 0
KGHS 142155Z 05014G21KT 35/10 A3005 RMK A01 T03500102  RH  023%=      5-min Rain = 0
KGHS 142200Z 06012G17KT 35/10 A3005 RMK A01 T03490101  RH  023%=      5-min Rain = 0
KGHS 142205Z 07014G22KT 35/10 A3005 RMK A01 T03490104  RH  023%=      5-min Rain = 0
KGHS 142210Z 08014G21KT 35/11 A3005 RMK A01 T03490108  RH  024%=      5-min Rain = 0
KGHS 142215Z 09012G19KT 35/11 A3005 RMK A01 T03500108  RH  024%=      5-min Rain = 0
KGHS 142220Z 05010G17KT 35/10 A3005 RMK A01 T03500099  RH  022%=      5-min Rain = 0
KGHS 142225Z 08011G16KT 35/11 A3005 RMK A01 T03520107  RH  023%=      5-min Rain = 0
KGHS 142230Z 05012G17KT 35/11 A3005 RMK A01 T03510105  RH  023%=      5-min Rain = 0
KGHS 142235Z 08009KT 35/11 A3005 RMK A01 T03510110  RH  024%=      5-min Rain = 0
KGHS 142240Z 08013G18KT 35/11 A3005 RMK A01 T03510112  RH  024%=      5-min Rain = 0
KGHS 142245Z 11014G20KT 35/11 A3005 RMK A01 T03490112  RH  025%=      5-min Rain = 0
KGHS 142250Z 09011G17KT 35/11 A3005 RMK A01 T03460112  RH  025%=      5-min Rain = 0
KGHS 142255Z 11011KT 35/11 A3005 RMK A01 T03470112  RH  025%=      5-min Rain = 0
KGHS 142300Z 10010KT 35/11 A3005 RMK A01 T03470111  RH  025%=      5-min Rain = 0
KGHS 142305Z 05011G19KT 35/11 A3005 RMK A01 T03470110  RH  025%=      5-min Rain = 0
KGHS 142310Z 10008KT 35/11 A3005 RMK A01 T03460111  RH  025%=      5-min Rain = 0
KGHS 142315Z 08011G16KT 35/11 A3005 RMK A01 T03450111  RH  025%=      5-min Rain = 0
KGHS 142320Z 10012KT 34/11 A3005 RMK A01 T03440110  RH  025%=      5-min Rain = 0
KGHS 142325Z 11009KT 34/11 A3005 RMK A01 T03410110  RH  025%=      5-min Rain = 0
KGHS 142330Z 09010KT 34/11 A3005 RMK A01 T03420112  RH  026%=      5-min Rain = 0
KGHS 142335Z 08012G18KT 34/11 A3005 RMK A01 T03440114  RH  026%=      5-min Rain = 0
KGHS 142340Z 10011G17KT 34/11 A3005 RMK A01 T03430113  RH  026%=      5-min Rain = 0
KGHS 142345Z 09009G14KT 34/11 A3005 RMK A01 T03420114  RH  026%=      5-min Rain = 0
KGHS 142350Z 08011G16KT 34/11 A3005 RMK A01 T03410114  RH  026%=      5-min Rain = 0
KGHS 142355Z 10009G14KT 34/12 A3005 RMK A01 T03410116  RH  027%=      5-min Rain = 0
KGHS 150000Z 08011KT 34/12 A3005 RMK A01 T03400115  RH  026%=      5-min Rain = 0
KGHS 150005Z 06010G15KT 34/11 A3005 RMK A01 T03370114  RH  027%=      5-min Rain = 0
KGHS 150010Z 09010KT 34/12 A3005 RMK A01 T03380116  RH  027%=      5-min Rain = 0
KGHS 150015Z 08013KT 34/12 A3005 RMK A01 T03380116  RH  027%=      5-min Rain = 0
KGHS 150020Z 08010KT 34/12 A3005 RMK A01 T03370116  RH  027%=      5-min Rain = 0
KGHS 150025Z 10010KT 34/12 A3005 RMK A01 T03360119  RH  028%=      5-min Rain = 0
KGHS 150030Z 07010KT 34/12 A3005 RMK A01 T03350118  RH  028%=      5-min Rain = 0
KGHS 150035Z 08008KT 33/12 A3005 RMK A01 T03340117  RH  028%=      5-min Rain = 0
KGHS 150040Z 07010G15KT 33/12 A3005 RMK A01 T03330120  RH  028%=      5-min Rain = 0
KGHS 150045Z 07010G15KT 33/12 A3005 RMK A01 T03320121  RH  029%=      5-min Rain = 0
KGHS 150050Z 09011KT 33/12 A3006 RMK A01 T03310122  RH  029%=      5-min Rain = 0
KGHS 150055Z 11011KT 33/12 A3006 RMK A01 T03290122  RH  030%=      5-min Rain = 0
KGHS 150100Z 11010KT 33/12 A3006 RMK A01 T03280122  RH  030%=      5-min Rain = 0
KGHS 150105Z 10012G17KT 33/12 A3006 RMK A01 T03280123  RH  030%=      5-min Rain = 0
KGHS 150110Z 09011KT 33/13 A3006 RMK A01 T03260125  RH  031%=      5-min Rain = 0
KGHS 150115Z 11009KT 32/13 A3006 RMK A01 T03240126  RH  031%=      5-min Rain = 0
KGHS 150120Z 09010KT 32/13 A3007 RMK A01 T03230126  RH  031%=      5-min Rain = 0
KGHS 150125Z 10008KT 32/13 A3007 RMK A01 T03220127  RH  032%=      5-min Rain = 0
KGHS 150130Z 10009KT 32/13 A3007 RMK A01 T03200128  RH  032%=      5-min Rain = 0
KGHS 150135Z 11008G14KT 32/13 A3007 RMK A01 T03180129  RH  033%=      5-min Rain = 0
KGHS 150140Z 10008KT 32/13 A3008 RMK A01 T03170129  RH  033%=      5-min Rain = 0
KGHS 150145Z 10010KT 32/13 A3008 RMK A01 T03160129  RH  033%=      5-min Rain = 0
KGHS 150150Z 09011KT 32/13 A3008 RMK A01 T03150130  RH  034%=      5-min Rain = 0
KGHS 150155Z 09011KT 31/13 A3008 RMK A01 T03140132  RH  034%=      5-min Rain = 0
KGHS 150200Z 10009G14KT 31/13 A3009 RMK A01 T03120132  RH  035%=      5-min Rain = 0
KGHS 150205Z 09009KT 31/13 A3009 RMK A01 T03110133  RH  035%=      5-min Rain = 0
KGHS 150210Z 09009KT 31/13 A3009 RMK A01 T03100133  RH  036%=      5-min Rain = 0
KGHS 150215Z 09009KT 31/13 A301 RMK A01 T03080134  RH  036%=      5-min Rain = 0
KGHS 150220Z 09010KT 31/14 A301 RMK A01 T03080135  RH  036%=      5-min Rain = 0
KGHS 150225Z 09009KT 31/14 A301 RMK A01 T03070135  RH  037%=      5-min Rain = 0
KGHS 150230Z 10010KT 31/14 A301 RMK A01 T03060136  RH  037%=      5-min Rain = 0
KGHS 150235Z 10010KT 31/14 A3011 RMK A01 T03050136  RH  037%=      5-min Rain = 0
KGHS 150240Z 10010KT 30/14 A3011 RMK A01 T03040137  RH  038%=      5-min Rain = 0
KGHS 150245Z 10009KT 30/14 A3011 RMK A01 T03030138  RH  038%=      5-min Rain = 0
KGHS 150250Z 10008KT 30/14 A3012 RMK A01 T03010138  RH  038%=      5-min Rain = 0
KGHS 150255Z 10009KT 30/14 A3011 RMK A01 T03000138  RH  039%=      5-min Rain = 0
KGHS 150300Z 10009KT 30/14 A3012 RMK A01 T02990138  RH  039%=      5-min Rain = 0
KGHS 150305Z 10009KT 30/14 A3012 RMK A01 T02980138  RH  039%=      5-min Rain = 0
KGHS 150310Z 10009KT 30/14 A3012 RMK A01 T02970138  RH  039%=      5-min Rain = 0
KGHS 150315Z 10008KT 30/14 A3012 RMK A01 T02960139  RH  040%=      5-min Rain = 0
KGHS 150320Z 10008KT 30/14 A3013 RMK A01 T02950140  RH  040%=      5-min Rain = 0
KGHS 150325Z 10009KT 30/14 A3013 RMK A01 T02950140  RH  041%=      5-min Rain = 0
KGHS 150330Z 10008KT 29/14 A3013 RMK A01 T02940141  RH  041%=      5-min Rain = 0
KGHS 150335Z 10010KT 29/14 A3013 RMK A01 T02930143  RH  042%=      5-min Rain = 0
KGHS 150340Z 11009KT 29/14 A3013 RMK A01 T02930144  RH  042%=      5-min Rain = 0
KGHS 150345Z 10009KT 29/15 A3013 RMK A01 T02920145  RH  042%=      5-min Rain = 0
KGHS 150350Z 10009KT 29/15 A3013 RMK A01 T02920146  RH  043%=      5-min Rain = 0
KGHS 150355Z 10008KT 29/15 A3014 RMK A01 T02910146  RH  043%=      5-min Rain = 0
KGHS 150400Z 10010KT 29/15 A3013 RMK A01 T02900147  RH  044%=      5-min Rain = 0
KGHS 150405Z 10009KT 29/15 A3013 RMK A01 T02900148  RH  044%=      5-min Rain = 0
KGHS 150410Z 10010KT 29/15 A3014 RMK A01 T02890149  RH  044%=      5-min Rain = 0
KGHS 150415Z 10010KT 29/15 A3014 RMK A01 T02890150  RH  045%=      5-min Rain = 0
KGHS 150420Z 10010KT 29/15 A3014 RMK A01 T02880150  RH  045%=      5-min Rain = 0
KGHS 150425Z 09008KT 29/15 A3014 RMK A01 T02860151  RH  046%=      5-min Rain = 0
KGHS 150430Z 09009KT 29/15 A3014 RMK A01 T02850152  RH  046%=      5-min Rain = 0
KGHS 150435Z 09009KT 28/15 A3014 RMK A01 T02840154  RH  047%=      5-min Rain = 0
KGHS 150440Z 10010KT 28/16 A3014 RMK A01 T02840155  RH  048%=      5-min Rain = 0
KGHS 150445Z 09010KT 28/16 A3014 RMK A01 T02830156  RH  048%=      5-min Rain = 0
KGHS 150450Z 09009KT 28/16 A3014 RMK A01 T02830156  RH  048%=      5-min Rain = 0
KGHS 150455Z 09010KT 28/16 A3014 RMK A01 T02820157  RH  049%=      5-min Rain = 0

Page generated in 0.0099 seconds.